GOMOS weather

Agriturismo Turus
Mossa (GO), Friuli-Venezia Giulia, Italy

Public forecast

Using degrees Celsius for public forecast. Weather courtesy of forecast.io.

Closest aviation weather report (METAR) to Agriturismo Turus

Closest report is Trieste–Friuli Venezia Giulia Airport, 6.5 nm (12.0 km) SSW. Retrieved 2020/01/23 04:20 UTC (10 minutes ago):

LIPQ 230420Z AUTO VRB02KT 9999 NCD M03/M04 Q1030

Closest aviation forecast (TAF) to Agriturismo Turus

Closest forecast is Trieste–Friuli Venezia Giulia Airport, 6.5 nm (12.0 km) SSW. Retrieved 2020-01-23 00:22 UTC (4 hours ago):

TAF LIPQ 222300Z 2300/2324 VRB05KT 9999 FEW030